Time;durP1;ratioP1;P1;durP2;ratioP2;P2;SDS_P1;SDS_P2;PMS_P1;PMS_P2;Temp;Humidity;BMP_temperature;BMP_pressure;BME280_temperature;BME280_humidity;BME280_pressure;Samples;Min_cycle;Max_cycle;Signal;HPM_P1;HPM_P2
2021/06/12 00:00:01;;;;;;;17.27;8.68;;;;;10.00;101099.00;;;;5029228;28;20029;-73
2021/06/12 00:02:28;;;;;;;15.98;10.10;;;;;9.90;101113.00;;;;5028686;28;20030;-70
2021/06/12 00:04:54;;;;;;;22.23;10.13;;;;;9.90;101104.00;;;;5030293;28;20053;-70
2021/06/12 00:07:21;;;;;;;21.95;10.70;;;;;9.90;101116.00;;;;5029426;28;20029;-68
2021/06/12 00:09:47;;;;;;;18.00;10.27;;;;;9.90;101101.00;;;;5028740;28;20029;-71
2021/06/12 00:12:14;;;;;;;20.48;11.18;;;;;10.00;101117.00;;;;5029534;28;20101;-69
2021/06/12 00:14:40;;;;;;;18.95;10.43;;;;;9.90;101110.00;;;;5029788;28;20532;-70
2021/06/12 00:17:07;;;;;;;20.60;11.93;;;;;9.80;101106.00;;;;5029859;28;20037;-68
2021/06/12 00:19:33;;;;;;;22.80;12.55;;;;;9.80;101106.00;;;;5029525;28;20033;-69
2021/06/12 00:22:00;;;;;;;16.52;11.00;;;;;9.70;101109.00;;;;5029088;28;20037;-72
2021/06/12 00:24:27;;;;;;;16.10;11.02;;;;;9.70;101129.00;;;;5029446;28;20026;-70
2021/06/12 00:26:54;;;;;;;15.02;10.63;;;;;9.70;101123.00;;;;5029717;28;20037;-73
2021/06/12 00:29:20;;;;;;;19.05;10.63;;;;;9.60;101129.00;;;;5029137;28;20091;-71
2021/06/12 00:31:47;;;;;;;20.00;10.32;;;;;9.50;101120.00;;;;5027892;28;20044;-69
2021/06/12 00:34:13;;;;;;;13.93;8.82;;;;;9.40;101091.00;;;;5028055;28;20052;-72
2021/06/12 00:36:40;;;;;;;15.07;9.45;;;;;9.40;101115.00;;;;5027426;28;20515;-70
2021/06/12 00:39:06;;;;;;;20.65;9.00;;;;;9.40;101111.00;;;;5028815;28;20409;-70
2021/06/12 00:41:33;;;;;;;17.15;11.60;;;;;9.40;101108.00;;;;5028694;28;20065;-68
2021/06/12 00:43:59;;;;;;;23.25;11.27;;;;;9.30;101130.00;;;;5029142;28;20029;-71
2021/06/12 00:46:26;;;;;;;21.70;12.73;;;;;9.30;101130.00;;;;5029053;28;20064;-73
2021/06/12 00:48:53;;;;;;;18.10;13.95;;;;;9.20;101152.00;;;;5028593;28;20068;-71
2021/06/12 00:51:21;;;;;;;19.40;13.35;;;;;9.20;101148.00;;;;5028799;28;20083;-71
2021/06/12 00:53:48;;;;;;;16.92;11.90;;;;;9.10;101150.00;;;;5028987;28;20087;-69
2021/06/12 00:56:17;;;;;;;15.52;11.30;;;;;9.10;101170.00;;;;5029072;28;20030;-70
2021/06/12 00:58:44;;;;;;;15.48;10.05;;;;;9.10;101153.00;;;;5029119;28;20033;-71
2021/06/12 01:01:19;;;;;;;15.02;10.75;;;;;9.10;101140.00;;;;5028304;28;20026;-73
2021/06/12 01:03:46;;;;;;;13.88;10.02;;;;;9.10;101158.00;;;;5028976;28;20059;-75
2021/06/12 01:06:15;;;;;;;13.23;8.90;;;;;9.10;101161.00;;;;5029116;28;20734;-72
2021/06/12 01:08:42;;;;;;;12.88;7.88;;;;;9.10;101164.00;;;;5028297;28;20440;-71
2021/06/12 01:11:10;;;;;;;13.20;7.82;;;;;9.10;101160.00;;;;5028377;28;20029;-74
2021/06/12 01:13:54;;;;;;;14.23;6.85;;;;;9.10;101161.00;;;;5028633;28;20053;-72
2021/06/12 01:16:35;;;;;;;8.40;7.13;;;;;9.10;101180.00;;;;5028013;28;20392;-71
2021/06/12 01:19:15;;;;;;;10.20;6.75;;;;;9.10;101176.00;;;;5028699;28;20554;-73
2021/06/12 01:21:45;;;;;;;12.30;7.05;;;;;9.20;101172.00;;;;5028540;28;20025;-68
2021/06/12 01:24:35;;;;;;;11.32;7.00;;;;;9.10;101167.00;;;;5028427;28;20022;-69
2021/06/12 01:27:37;;;;;;;8.27;7.22;;;;;9.10;101180.00;;;;5028210;28;20025;-71
2021/06/12 01:30:13;;;;;;;10.57;7.70;;;;;9.10;101174.00;;;;5020053;28;20092;-67
2021/06/12 01:32:46;;;;;;;12.18;7.80;;;;;9.10;101174.00;;;;5028188;28;20025;-69
2021/06/12 01:35:22;;;;;;;12.02;8.02;;;;;9.00;101176.00;;;;5028158;28;20080;-71
2021/06/12 01:37:50;;;;;;;15.82;8.68;;;;;9.00;101174.00;;;;5028460;28;20128;-73
2021/06/12 01:40:20;;;;;;;10.35;8.35;;;;;8.90;101167.00;;;;5028020;28;20040;-70
2021/06/12 01:42:48;;;;;;;10.73;8.45;;;;;8.80;101166.00;;;;5028180;28;20099;-71
2021/06/12 01:45:15;;;;;;;9.75;7.90;;;;;8.80;101162.00;;;;5026210;28;20124;-70
2021/06/12 01:47:43;;;;;;;12.63;9.15;;;;;8.80;101172.00;;;;5027591;28;20112;-72
2021/06/12 01:50:11;;;;;;;11.48;8.68;;;;;8.80;101157.00;;;;5028146;28;20037;-71
2021/06/12 01:52:40;;;;;;;11.07;9.25;;;;;8.80;101159.00;;;;5028034;28;20585;-71
2021/06/12 01:55:08;;;;;;;11.27;9.18;;;;;8.80;101187.00;;;;5027308;28;20030;-71
2021/06/12 01:57:36;;;;;;;13.57;9.45;;;;;8.70;101164.00;;;;5028008;28;20030;-72
2021/06/12 02:00:05;;;;;;;11.70;9.48;;;;;8.70;101168.00;;;;5027920;28;20025;-70
2021/06/12 02:02:32;;;;;;;13.68;10.65;;;;;8.70;101164.00;;;;5027857;28;21139;-71
2021/06/12 02:05:00;;;;;;;13.00;10.40;;;;;8.60;101160.00;;;;5027169;28;20060;-71
2021/06/12 02:07:30;;;;;;;15.15;10.95;;;;;8.60;101160.00;;;;5027184;28;20497;-74
2021/06/12 02:09:57;;;;;;;12.77;10.10;;;;;8.60;101161.00;;;;5027147;28;20037;-72
2021/06/12 02:12:27;;;;;;;15.68;10.73;;;;;8.70;101140.00;;;;5026858;28;20049;-71
2021/06/12 02:14:57;;;;;;;16.10;11.73;;;;;8.60;101133.00;;;;5027436;28;20044;-70
2021/06/12 02:17:24;;;;;;;14.13;10.82;;;;;8.60;101147.00;;;;5027378;28;20025;-70
2021/06/12 02:19:50;;;;;;;19.48;11.13;;;;;8.50;101135.00;;;;5027510;28;20075;-69
2021/06/12 02:22:18;;;;;;;15.13;11.85;;;;;8.50;101131.00;;;;5027538;28;20029;-73
2021/06/12 02:24:45;;;;;;;17.88;12.40;;;;;8.60;101143.00;;;;5027587;28;20057;-73
2021/06/12 02:27:13;;;;;;;17.55;12.70;;;;;8.60;101147.00;;;;5027067;28;20068;-68
2021/06/12 02:29:41;;;;;;;20.75;12.77;;;;;8.70;101147.00;;;;5027360;28;20033;-71
2021/06/12 02:32:10;;;;;;;16.20;13.88;;;;;8.70;101133.00;;;;5027348;28;20028;-71
2021/06/12 02:34:37;;;;;;;19.38;14.02;;;;;8.70;101150.00;;;;5027127;28;20041;-73
2021/06/12 02:37:08;;;;;;;20.25;13.63;;;;;8.70;101147.00;;;;5026790;28;20033;-71
2021/06/12 02:39:35;;;;;;;21.30;12.90;;;;;8.70;101140.00;;;;5027488;28;20035;-73
2021/06/12 02:42:04;;;;;;;17.77;12.45;;;;;8.70;101152.00;;;;5027114;28;20036;-69
2021/06/12 02:44:30;;;;;;;19.70;11.80;;;;;8.80;101149.00;;;;5027024;28;20116;-71
2021/06/12 02:47:05;;;;;;;19.25;11.05;;;;;8.90;101167.00;;;;5027190;28;20033;-70
2021/06/12 02:49:42;;;;;;;19.55;11.60;;;;;8.90;101145.00;;;;5027573;28;20112;-70
2021/06/12 02:52:18;;;;;;;21.75;13.48;;;;;8.80;101126.00;;;;5026684;28;20032;-68
2021/06/12 02:54:46;;;;;;;17.85;13.20;;;;;8.80;101137.00;;;;5027487;28;20033;-70
2021/06/12 02:57:14;;;;;;;17.00;12.65;;;;;8.70;101139.00;;;;5026686;28;20041;-71
2021/06/12 02:59:44;;;;;;;13.55;11.55;;;;;8.80;101140.00;;;;5026533;28;20025;-72
2021/06/12 03:02:13;;;;;;;15.23;11.52;;;;;8.80;101132.00;;;;5026713;28;20026;-73
2021/06/12 03:04:44;;;;;;;15.20;11.95;;;;;8.60;101128.00;;;;5026759;28;20560;-69
2021/06/12 03:07:13;;;;;;;16.38;12.38;;;;;8.60;101131.00;;;;5026862;28;20035;-69
2021/06/12 03:09:43;;;;;;;16.25;10.93;;;;;8.60;101134.00;;;;5026868;28;20180;-69
2021/06/12 03:12:12;;;;;;;13.25;11.60;;;;;8.60;101142.00;;;;5026530;28;20056;-70
2021/06/12 03:14:42;;;;;;;13.13;10.93;;;;;8.70;101131.00;;;;5026469;28;20103;-72
2021/06/12 03:17:09;;;;;;;13.63;10.90;;;;;8.80;101103.00;;;;5027638;28;20021;-71
2021/06/12 03:19:37;;;;;;;14.43;10.52;;;;;8.90;101113.00;;;;5030488;28;20635;-71
2021/06/12 03:22:06;;;;;;;16.85;9.75;;;;;8.80;101138.00;;;;5030297;28;20083;-71
2021/06/12 03:24:33;;;;;;;15.35;10.30;;;;;8.70;101123.00;;;;5030482;28;20036;-71
2021/06/12 03:27:00;;;;;;;13.68;10.15;;;;;8.70;101133.00;;;;5030133;28;20038;-73
2021/06/12 03:29:32;;;;;;;16.52;10.90;;;;;8.80;101134.00;;;;5030229;28;20124;-70
2021/06/12 03:31:59;;;;;;;14.88;10.60;;;;;8.80;101135.00;;;;5030274;28;20057;-71
2021/06/12 03:34:27;;;;;;;12.82;9.98;;;;;8.70;101140.00;;;;5030560;28;20065;-71
2021/06/12 03:36:56;;;;;;;15.35;10.07;;;;;8.70;101129.00;;;;5030437;28;20073;-71
2021/06/12 03:39:23;;;;;;;12.45;10.00;;;;;8.60;101132.00;;;;5030929;28;20034;-70
2021/06/12 03:41:51;;;;;;;14.52;10.40;;;;;8.60;101128.00;;;;5030638;28;20080;-70
2021/06/12 03:44:19;;;;;;;14.45;10.32;;;;;8.60;101123.00;;;;5029629;28;20087;-73
2021/06/12 03:46:48;;;;;;;13.68;10.93;;;;;8.50;101115.00;;;;5029833;28;20485;-69
2021/06/12 03:49:17;;;;;;;13.15;10.10;;;;;8.50;101122.00;;;;5029588;28;20091;-70
2021/06/12 03:51:43;;;;;;;14.57;10.10;;;;;8.40;101124.00;;;;5030106;28;20057;-70
2021/06/12 03:54:10;;;;;;;13.00;10.23;;;;;8.30;101119.00;;;;5030392;28;20025;-70
2021/06/12 03:56:39;;;;;;;14.70;9.07;;;;;8.30;101104.00;;;;5029417;28;20026;-69
2021/06/12 03:59:07;;;;;;;10.55;9.43;;;;;8.30;101107.00;;;;5029982;28;20079;-72
2021/06/12 04:01:35;;;;;;;11.48;9.68;;;;;8.20;101086.00;;;;5030188;28;20033;-71
2021/06/12 04:04:02;;;;;;;10.65;8.80;;;;;8.20;101096.00;;;;5030403;28;20037;-73
2021/06/12 04:06:28;;;;;;;10.07;8.93;;;;;8.20;101110.00;;;;5029630;28;20040;-71
2021/06/12 04:08:55;;;;;;;10.55;9.10;;;;;8.30;101120.00;;;;5029449;28;20029;-73
2021/06/12 04:11:21;;;;;;;20.10;9.35;;;;;8.30;101107.00;;;;5027978;28;20038;-69
2021/06/12 04:13:48;;;;;;;10.90;7.78;;;;;8.20;101114.00;;;;5029271;28;20060;-71
2021/06/12 04:16:14;;;;;;;16.00;8.77;;;;;8.20;101114.00;;;;5029703;28;20022;-72
2021/06/12 04:18:41;;;;;;;16.88;8.55;;;;;8.20;101106.00;;;;5028157;28;20041;-71
2021/06/12 04:21:08;;;;;;;18.80;8.93;;;;;8.20;101101.00;;;;5029511;28;20033;-68
2021/06/12 04:23:34;;;;;;;10.85;7.43;;;;;8.10;101091.00;;;;5029769;28;20028;-69
2021/06/12 04:26:01;;;;;;;10.70;8.32;;;;;8.10;101102.00;;;;5029478;28;20044;-69
2021/06/12 04:28:27;;;;;;;10.35;8.00;;;;;8.10;101121.00;;;;5028975;28;20034;-68
2021/06/12 04:30:54;;;;;;;13.70;7.43;;;;;8.10;101132.00;;;;5029626;28;20037;-71
2021/06/12 04:33:20;;;;;;;9.45;7.22;;;;;8.00;101122.00;;;;5029087;28;20083;-68
2021/06/12 04:35:48;;;;;;;11.45;7.13;;;;;8.00;101137.00;;;;5029231;28;20060;-71
2021/06/12 04:38:14;;;;;;;10.05;6.38;;;;;8.00;101141.00;;;;5029192;28;20022;-70
2021/06/12 04:40:41;;;;;;;13.07;6.75;;;;;7.90;101127.00;;;;5029287;28;20080;-70
2021/06/12 04:43:11;;;;;;;9.45;6.43;;;;;7.90;101130.00;;;;5029176;28;20045;-68
2021/06/12 04:45:38;;;;;;;9.80;6.68;;;;;7.90;101123.00;;;;5029051;28;20504;-70
2021/06/12 04:48:06;;;;;;;9.95;6.32;;;;;7.80;101122.00;;;;5029334;28;20071;-71
2021/06/12 04:50:36;;;;;;;9.88;5.90;;;;;7.80;101111.00;;;;5029011;28;20506;-70
2021/06/12 04:53:04;;;;;;;10.35;6.72;;;;;7.80;101089.00;;;;5028583;28;20035;-70
2021/06/12 04:55:32;;;;;;;9.98;7.22;;;;;7.70;101101.00;;;;5029261;28;20073;-69
2021/06/12 04:57:58;;;;;;;13.80;6.80;;;;;7.60;101114.00;;;;5028893;28;20048;-69
2021/06/12 05:00:25;;;;;;;9.93;6.57;;;;;7.70;101120.00;;;;5028724;28;20392;-71
2021/06/12 05:02:51;;;;;;;8.27;6.25;;;;;7.70;101119.00;;;;5028592;28;20021;-70
2021/06/12 05:05:18;;;;;;;8.35;6.45;;;;;7.70;101130.00;;;;5027539;28;20504;-70
2021/06/12 05:07:44;;;;;;;7.80;5.78;;;;;7.60;101137.00;;;;5028461;28;20435;-69
2021/06/12 05:10:12;;;;;;;7.10;6.00;;;;;7.60;101133.00;;;;5028413;28;20033;-68
2021/06/12 05:12:39;;;;;;;8.95;6.18;;;;;7.70;101122.00;;;;5028767;28;20134;-67
2021/06/12 05:15:08;;;;;;;9.82;6.53;;;;;7.70;101127.00;;;;5028424;28;20104;-68
2021/06/12 05:17:35;;;;;;;9.55;5.95;;;;;7.80;101117.00;;;;5028000;28;20029;-71
2021/06/12 05:20:03;;;;;;;12.50;6.35;;;;;7.80;101118.00;;;;5028109;28;20038;-69
2021/06/12 05:22:29;;;;;;;7.45;5.88;;;;;7.90;101120.00;;;;5028082;28;20029;-69
2021/06/12 05:24:57;;;;;;;11.45;6.28;;;;;8.00;101126.00;;;;5028028;28;20029;-68
2021/06/12 05:27:25;;;;;;;11.85;6.00;;;;;8.10;101119.00;;;;5028117;28;20105;-71
2021/06/12 05:29:52;;;;;;;10.25;5.63;;;;;7.90;101101.00;;;;5028352;28;20459;-67
2021/06/12 05:32:19;;;;;;;7.32;5.85;;;;;7.90;101108.00;;;;5028013;28;20035;-71
2021/06/12 05:34:45;;;;;;;7.00;5.47;;;;;8.00;101104.00;;;;5028105;28;20472;-69
2021/06/12 05:37:13;;;;;;;6.32;5.28;;;;;7.90;101111.00;;;;5028402;28;20025;-69
2021/06/12 05:39:40;;;;;;;8.68;5.57;;;;;7.90;101116.00;;;;5027193;28;20435;-71
2021/06/12 05:42:07;;;;;;;9.13;5.68;;;;;7.90;101091.00;;;;5028026;28;20045;-71
2021/06/12 05:44:34;;;;;;;8.32;5.50;;;;;7.90;101083.00;;;;5028137;28;20041;-69
2021/06/12 05:47:00;;;;;;;12.23;6.00;;;;;7.80;101083.00;;;;5027747;28;20049;-69
2021/06/12 05:49:27;;;;;;;7.95;5.63;;;;;7.80;101086.00;;;;5028054;28;20496;-67
2021/06/12 05:51:53;;;;;;;7.57;5.57;;;;;7.70;101075.00;;;;5027858;28;20493;-69
2021/06/12 05:54:20;;;;;;;7.80;5.80;;;;;7.60;101081.00;;;;5027994;28;20131;-68
2021/06/12 05:56:46;;;;;;;8.13;5.63;;;;;7.50;101081.00;;;;5028281;28;20120;-70
2021/06/12 05:59:13;;;;;;;9.80;5.93;;;;;7.40;101086.00;;;;5027720;28;20025;-69
2021/06/12 06:01:39;;;;;;;14.27;5.90;;;;;7.40;101085.00;;;;5027830;28;20080;-70
2021/06/12 06:04:06;;;;;;;6.35;5.40;;;;;7.40;101085.00;;;;5027604;28;20400;-70
2021/06/12 06:06:33;;;;;;;8.85;5.80;;;;;7.40;101090.00;;;;5027622;28;20025;-71
2021/06/12 06:08:59;;;;;;;10.70;5.53;;;;;7.40;101077.00;;;;5027365;28;20025;-70
2021/06/12 06:11:26;;;;;;;9.10;6.07;;;;;7.40;101084.00;;;;5026699;28;20037;-70
2021/06/12 06:13:52;;;;;;;9.80;5.50;;;;;7.30;101087.00;;;;5027450;28;20037;-69
2021/06/12 06:16:19;;;;;;;9.68;6.00;;;;;7.30;101091.00;;;;5027147;28;20399;-71
2021/06/12 06:18:45;;;;;;;10.13;6.07;;;;;7.30;101074.00;;;;5025746;28;20456;-71
2021/06/12 06:21:12;;;;;;;9.73;6.60;;;;;7.20;101090.00;;;;5027898;28;20029;-69
2021/06/12 06:23:39;;;;;;;11.60;5.95;;;;;7.20;101086.00;;;;5026804;28;20033;-69
2021/06/12 06:26:05;;;;;;;8.65;6.20;;;;;7.30;101075.00;;;;5027317;28;20021;-68
2021/06/12 06:28:32;;;;;;;9.55;6.45;;;;;7.50;101075.00;;;;5027249;28;20041;-69
2021/06/12 06:30:58;;;;;;;8.50;5.82;;;;;7.50;101072.00;;;;5026159;28;20040;-69
2021/06/12 06:33:25;;;;;;;10.30;7.32;;;;;7.50;101068.00;;;;5027100;28;20037;-70
2021/06/12 06:35:53;;;;;;;10.85;5.68;;;;;7.40;101072.00;;;;5026984;28;20021;-71
2021/06/12 06:38:20;;;;;;;7.40;5.53;;;;;7.30;101077.00;;;;5027110;28;20472;-70
2021/06/12 06:40:47;;;;;;;9.02;5.50;;;;;7.20;101069.00;;;;5026626;28;20044;-67
2021/06/12 06:43:14;;;;;;;9.13;5.28;;;;;7.10;101068.00;;;;5027146;28;20026;-68
2021/06/12 06:45:42;;;;;;;12.70;5.75;;;;;7.20;101068.00;;;;5026976;28;20049;-70
2021/06/12 06:48:10;;;;;;;8.00;5.30;;;;;7.20;101069.00;;;;5026677;28;20029;-69
2021/06/12 06:50:36;;;;;;;11.57;6.07;;;;;7.20;101080.00;;;;5026881;28;20040;-70
2021/06/12 06:53:03;;;;;;;8.68;5.57;;;;;7.10;101086.00;;;;5026827;28;20084;-67
2021/06/12 06:55:30;;;;;;;9.10;4.70;;;;;7.10;101085.00;;;;5025825;28;20155;-69
2021/06/12 06:57:56;;;;;;;12.07;5.32;;;;;7.00;101083.00;;;;5026572;28;20091;-69
2021/06/12 07:00:25;;;;;;;8.57;5.32;;;;;6.90;101073.00;;;;5026881;28;20484;-70
2021/06/12 07:02:52;;;;;;;8.68;5.28;;;;;6.90;101086.00;;;;5026656;28;20029;-68
2021/06/12 07:05:19;;;;;;;7.43;5.03;;;;;6.80;101087.00;;;;5027103;28;20036;-71
2021/06/12 07:07:46;;;;;;;12.30;5.20;;;;;6.60;101077.00;;;;5027081;28;20503;-67
2021/06/12 07:10:13;;;;;;;7.57;5.43;;;;;6.60;101079.00;;;;5026202;28;20040;-68
2021/06/12 07:12:40;;;;;;;7.90;5.65;;;;;6.60;101086.00;;;;5026237;28;20045;-70
2021/06/12 07:15:09;;;;;;;6.00;5.28;;;;;6.60;101085.00;;;;5026416;28;20030;-71
2021/06/12 07:17:35;;;;;;;14.00;5.28;;;;;6.60;101059.00;;;;5026602;28;20531;-69
2021/06/12 07:20:03;;;;;;;8.57;5.68;;;;;6.70;101076.00;;;;5026414;28;20029;-68
2021/06/12 07:22:29;;;;;;;6.72;5.43;;;;;6.60;101071.00;;;;5026740;28;20060;-69
2021/06/12 07:24:56;;;;;;;14.52;5.03;;;;;6.50;101075.00;;;;5026430;28;20381;-68
2021/06/12 07:27:22;;;;;;;7.18;4.97;;;;;6.40;101082.00;;;;5026256;28;20060;-71
2021/06/12 07:29:49;;;;;;;5.65;4.63;;;;;6.50;101077.00;;;;5026886;28;20053;-71
2021/06/12 07:32:16;;;;;;;8.68;5.35;;;;;6.50;101086.00;;;;5026869;28;20079;-70
2021/06/12 07:34:43;;;;;;;6.95;5.03;;;;;6.40;101079.00;;;;5026589;28;20044;-71
2021/06/12 07:37:11;;;;;;;7.00;4.32;;;;;6.40;101079.00;;;;5026399;28;20048;-70
2021/06/12 07:39:37;;;;;;;8.50;4.93;;;;;6.40;101081.00;;;;5025806;28;20049;-68
2021/06/12 07:42:04;;;;;;;13.50;5.22;;;;;6.40;101087.00;;;;5025828;28;20408;-71
2021/06/12 07:44:31;;;;;;;7.18;4.60;;;;;6.40;101089.00;;;;5026465;28;20034;-69
2021/06/12 07:46:57;;;;;;;9.18;4.28;;;;;6.40;101101.00;;;;5026759;28;20026;-69
2021/06/12 07:49:24;;;;;;;9.35;4.80;;;;;6.50;101090.00;;;;5026202;28;20036;-71
2021/06/12 07:51:50;;;;;;;11.82;4.05;;;;;6.40;101084.00;;;;5026593;28;20473;-69
2021/06/12 07:54:18;;;;;;;4.93;4.15;;;;;6.40;101095.00;;;;5025935;28;20393;-68
2021/06/12 07:56:46;;;;;;;9.90;4.53;;;;;6.40;101089.00;;;;5026567;28;20048;-69
2021/06/12 07:59:12;;;;;;;9.13;4.85;;;;;6.40;101076.00;;;;5026894;28;20094;-71
2021/06/12 08:01:39;;;;;;;6.57;4.35;;;;;6.50;101096.00;;;;5026202;28;20604;-70
2021/06/12 08:04:05;;;;;;;5.85;4.07;;;;;6.40;101096.00;;;;5028570;28;20083;-68
2021/06/12 08:06:32;;;;;;;5.20;4.13;;;;;6.40;101099.00;;;;5029658;28;20037;-70
2021/06/12 08:08:58;;;;;;;10.93;4.80;;;;;6.40;101110.00;;;;5028832;28;20503;-69
2021/06/12 08:11:25;;;;;;;6.53;3.92;;;;;6.40;101102.00;;;;5029749;28;20116;-69
2021/06/12 08:13:51;;;;;;;14.70;4.70;;;;;6.30;101082.00;;;;5029997;28;20045;-68
2021/06/12 08:16:18;;;;;;;7.30;4.95;;;;;6.30;101096.00;;;;5030307;28;20084;-71
2021/06/12 08:18:44;;;;;;;10.90;5.80;;;;;6.30;101092.00;;;;5029801;28;20066;-68
2021/06/12 08:21:11;;;;;;;11.02;7.68;;;;;6.30;101096.00;;;;5029101;28;20041;-70
2021/06/12 08:23:38;;;;;;;17.65;9.30;;;;;6.20;101105.00;;;;5029126;28;20025;-70
2021/06/12 08:26:05;;;;;;;16.80;10.05;;;;;6.30;101100.00;;;;5029518;28;20083;-70
2021/06/12 08:28:32;;;;;;;15.75;9.77;;;;;6.20;101109.00;;;;5029174;28;20033;-70
2021/06/12 08:30:58;;;;;;;12.38;9.23;;;;;6.20;101114.00;;;;5029256;28;20040;-68
2021/06/12 08:33:25;;;;;;;19.23;13.48;;;;;6.20;101110.00;;;;5029730;28;20425;-70
2021/06/12 08:35:52;;;;;;;18.98;11.35;;;;;6.30;101095.00;;;;5029096;28;20026;-69
2021/06/12 08:38:19;;;;;;;17.40;8.52;;;;;6.20;101105.00;;;;5028139;28;20034;-70
2021/06/12 08:40:48;;;;;;;8.40;6.40;;;;;6.20;101094.00;;;;5029404;28;20508;-71
2021/06/12 08:43:27;;;;;;;10.48;6.85;;;;;6.20;101113.00;;;;5029415;28;20440;-70
2021/06/12 08:45:55;;;;;;;8.52;6.07;;;;;6.20;101102.00;;;;5028645;28;20034;-70
2021/06/12 08:48:23;;;;;;;7.15;5.15;;;;;6.20;101113.00;;;;5029468;28;20029;-70
2021/06/12 08:50:50;;;;;;;7.72;4.97;;;;;6.10;101108.00;;;;5027328;28;20116;-71
2021/06/12 08:53:17;;;;;;;8.30;4.95;;;;;6.10;101100.00;;;;5029612;28;20048;-71
2021/06/12 08:55:45;;;;;;;7.18;4.07;;;;;6.10;101127.00;;;;5029192;28;20032;-71
2021/06/12 08:58:13;;;;;;;10.00;4.82;;;;;6.00;101122.00;;;;5029173;28;20496;-69
2021/06/12 09:00:41;;;;;;;6.65;4.30;;;;;6.00;101117.00;;;;5028846;28;20071;-71
2021/06/12 09:03:09;;;;;;;10.45;4.38;;;;;6.00;101112.00;;;;5028098;28;20116;-70
2021/06/12 09:05:48;;;;;;;5.78;4.68;;;;;6.00;101123.00;;;;5028295;28;20040;-67
2021/06/12 09:08:17;;;;;;;6.38;4.63;;;;;6.00;101125.00;;;;5028317;28;20417;-69
2021/06/12 09:10:56;;;;;;;5.05;4.07;;;;;5.90;101127.00;;;;5028649;28;20029;-70
2021/06/12 09:13:40;;;;;;;6.32;4.57;;;;;6.00;101130.00;;;;5028364;28;20049;-68
2021/06/12 09:16:09;;;;;;;8.73;4.40;;;;;5.90;101148.00;;;;5028538;28;20083;-69
2021/06/12 09:18:37;;;;;;;9.23;4.35;;;;;6.00;101139.00;;;;5029012;28;20022;-68
2021/06/12 09:21:03;;;;;;;8.63;4.82;;;;;5.90;101141.00;;;;5028536;28;20137;-68
2021/06/12 09:23:46;;;;;;;7.50;4.30;;;;;5.90;101122.00;;;;5028402;28;20036;-69
2021/06/12 09:26:13;;;;;;;5.93;4.30;;;;;5.90;101146.00;;;;5028230;28;20488;-69
2021/06/12 09:28:49;;;;;;;9.52;3.97;;;;;5.80;101153.00;;;;5028390;28;20057;-68
2021/06/12 09:31:25;;;;;;;6.53;4.63;;;;;5.70;101155.00;;;;5028417;28;20040;-71
2021/06/12 09:33:55;;;;;;;9.50;4.70;;;;;5.70;101172.00;;;;5027748;28;20619;-71
2021/06/12 09:36:32;;;;;;;6.70;4.55;;;;;5.80;101152.00;;;;5028153;28;20033;-69
2021/06/12 09:39:20;;;;;;;8.70;4.40;;;;;5.80;101160.00;;;;5026995;28;20092;-69
2021/06/12 09:41:48;;;;;;;7.35;5.00;;;;;5.70;101185.00;;;;5028417;28;20492;-69
2021/06/12 09:44:40;;;;;;;7.97;4.40;;;;;5.70;101175.00;;;;5027462;28;20500;-69
2021/06/12 09:47:22;;;;;;;9.85;4.25;;;;;5.70;101164.00;;;;5027092;28;20401;-69
2021/06/12 09:49:50;;;;;;;11.27;4.55;;;;;5.70;101185.00;;;;5027250;28;20049;-68
2021/06/12 09:52:18;;;;;;;6.95;5.45;;;;;5.60;101173.00;;;;5026166;28;20051;-69
2021/06/12 09:54:51;;;;;;;15.02;5.70;;;;;5.60;101169.00;;;;5026693;28;20121;-69
2021/06/12 09:57:25;;;;;;;8.20;4.35;;;;;5.60;101172.00;;;;5026661;28;20036;-69
2021/06/12 09:59:56;;;;;;;5.53;3.85;;;;;5.80;101185.00;;;;5027653;28;20030;-69
2021/06/12 10:02:46;;;;;;;8.55;4.72;;;;;5.80;101194.00;;;;5027454;28;20061;-71
2021/06/12 10:05:15;;;;;;;11.25;4.43;;;;;5.80;101172.00;;;;5027226;28;20492;-70
2021/06/12 10:07:43;;;;;;;7.45;4.40;;;;;5.80;101176.00;;;;5027146;28;20033;-70
2021/06/12 10:10:12;;;;;;;8.07;6.18;;;;;5.70;101181.00;;;;5027433;28;20036;-67
2021/06/12 10:12:40;;;;;;;8.10;4.05;;;;;5.70;101182.00;;;;5026807;28;20053;-72
2021/06/12 10:15:09;;;;;;;8.68;4.07;;;;;5.70;101191.00;;;;5027832;28;20037;-74
2021/06/12 10:17:46;;;;;;;7.70;4.28;;;;;5.70;101198.00;;;;5027310;28;20061;-70
2021/06/12 10:20:16;;;;;;;6.50;3.70;;;;;5.70;101187.00;;;;5027849;28;20473;-71
2021/06/12 10:22:45;;;;;;;6.20;3.72;;;;;5.80;101196.00;;;;5027279;28;20072;-73
2021/06/12 10:25:14;;;;;;;4.32;3.55;;;;;5.80;101199.00;;;;5026232;28;20524;-70
2021/06/12 10:27:42;;;;;;;7.38;3.13;;;;;5.80;101196.00;;;;5026833;28;20481;-74
2021/06/12 10:30:10;;;;;;;6.70;3.38;;;;;5.80;101195.00;;;;5026193;28;20519;-74
2021/06/12 10:32:43;;;;;;;11.32;3.35;;;;;5.90;101214.00;;;;5026793;28;20075;-70
2021/06/12 10:35:11;;;;;;;8.23;3.00;;;;;5.80;101208.00;;;;5026619;28;20142;-68
2021/06/12 10:38:20;;;;;;;7.53;3.15;;;;;5.90;101214.00;;;;5026692;28;20041;-73
2021/06/12 10:40:48;;;;;;;6.32;2.97;;;;;5.90;101216.00;;;;5026491;28;20037;-70
2021/06/12 10:43:26;;;;;;;6.90;3.40;;;;;5.90;101216.00;;;;5027118;28;20029;-72
2021/06/12 10:46:05;;;;;;;6.38;2.95;;;;;5.90;101215.00;;;;5026971;28;20117;-73
2021/06/12 10:48:41;;;;;;;6.10;3.20;;;;;6.10;101216.00;;;;5025733;28;20083;-70
2021/06/12 10:51:15;;;;;;;5.47;3.35;;;;;6.40;101183.00;;;;5026400;28;20048;-69
2021/06/12 10:53:48;;;;;;;7.43;3.50;;;;;7.40;101148.00;;;;5027440;28;20031;-69
2021/06/12 10:56:33;;;;;;;7.15;3.28;;;;;8.70;101127.00;;;;5026786;28;20025;-67
2021/06/12 10:59:00;;;;;;;5.18;2.60;;;;;8.40;101169.00;;;;5026433;28;20029;-73
2021/06/12 11:01:26;;;;;;;3.88;2.28;;;;;8.10;101167.00;;;;5026453;28;20409;-70
2021/06/12 11:09:18;;;;;;;13.80;2.13;;;;;9.70;101119.00;;;;5026630;28;20527;-69
2021/06/12 11:11:54;;;;;;;25.38;4.47;;;;;11.30;101112.00;;;;5026115;28;20053;-69
2021/06/12 11:14:21;;;;;;;6.38;2.60;;;;;10.70;101166.00;;;;5025820;28;20041;-70
2021/06/12 11:17:12;;;;;;;9.98;2.45;;;;;10.90;101136.00;;;;5026570;28;20037;-69
2021/06/12 11:19:43;;;;;;;6.43;2.10;;;;;11.00;101129.00;;;;5026298;28;20033;-69
2021/06/12 11:22:30;;;;;;;4.30;1.70;;;;;12.60;101082.00;;;;5026913;28;20033;-70
2021/06/12 11:24:59;;;;;;;5.78;1.90;;;;;12.70;101109.00;;;;5026218;28;20030;-70
2021/06/12 11:27:34;;;;;;;11.45;2.65;;;;;13.20;101084.00;;;;5026478;28;20025;-72
2021/06/12 11:30:17;;;;;;;3.78;2.13;;;;;15.50;101007.00;;;;5026649;28;20034;-72
2021/06/12 11:33:09;;;;;;;5.72;2.20;;;;;17.00;100999.00;;;;5026270;28;20749;-72
2021/06/12 11:35:39;;;;;;;6.60;2.72;;;;;16.80;100965.00;;;;5026392;28;20033;-68
2021/06/12 11:38:10;;;;;;;5.78;2.28;;;;;17.20;100970.00;;;;5026632;28;20040;-72
2021/06/12 11:40:39;;;;;;;3.45;2.20;;;;;17.60;101005.00;;;;5030273;28;20084;-71
2021/06/12 11:43:06;;;;;;;7.20;1.90;;;;;17.90;100981.00;;;;5029948;28;20064;-71
2021/06/12 11:45:35;;;;;;;18.23;2.60;;;;;18.10;100968.00;;;;5029480;28;20037;-70
2021/06/12 11:48:22;;;;;;;12.82;2.58;;;;;18.90;100974.00;;;;5030689;28;20965;-71
2021/06/12 11:50:49;;;;;;;6.78;1.95;;;;;18.90;100998.00;;;;5030292;28;20083;-66
2021/06/12 11:53:34;;;;;;;15.43;3.25;;;;;19.80;101001.00;;;;5029619;28;20120;-69
2021/06/12 11:56:01;;;;;;;14.52;2.53;;;;;20.10;101000.00;;;;5030235;28;20025;-69
2021/06/12 11:58:28;;;;;;;5.05;2.03;;;;;20.30;101013.00;;;;5029887;28;20108;-65
2021/06/12 12:00:54;;;;;;;5.85;1.90;;;;;20.80;101043.00;;;;5029249;28;20079;-71
2021/06/12 12:03:22;;;;;;;6.75;1.90;;;;;20.50;101051.00;;;;5029473;28;20033;-70
2021/06/12 12:05:58;;;;;;;35.70;4.55;;;;;20.40;101055.00;;;;5029728;28;20033;-71
2021/06/12 12:08:25;;;;;;;11.30;3.35;;;;;20.60;101035.00;;;;5029086;28;20037;-70
2021/06/12 12:10:54;;;;;;;4.85;1.95;;;;;20.50;101042.00;;;;5029319;28;20043;-70
2021/06/12 12:13:24;;;;;;;6.97;2.15;;;;;20.70;101036.00;;;;5029264;28;20400;-71
2021/06/12 12:15:51;;;;;;;8.52;1.70;;;;;21.00;101036.00;;;;5028728;28;20041;-73
2021/06/12 12:18:18;;;;;;;11.73;2.05;;;;;21.30;101051.00;;;;5028570;28;20040;-72
2021/06/12 12:20:52;;;;;;;22.58;3.10;;;;;21.50;101088.00;;;;5028415;28;20018;-68
2021/06/12 12:23:30;;;;;;;4.47;2.03;;;;;21.60;101082.00;;;;5028600;28;20064;-70